Time;durP1;ratioP1;P1;durP2;ratioP2;P2;SDS_P1;SDS_P2;PMS_P1;PMS_P2;Temp;Humidity;BMP_temperature;BMP_pressure;BME280_temperature;BME280_humidity;BME280_pressure;Samples;Min_cycle;Max_cycle;Signal;HPM_P1;HPM_P2
2024/02/12 00:00:46;;;;;;;23.67;12.98;;;-3.80;99.90;;;;;;5077803;28;20384;-79
2024/02/12 00:03:12;;;;;;;28.67;13.68;;;-3.80;99.90;;;;;;5086221;28;20043;-80
2024/02/12 00:05:38;;;;;;;28.23;13.27;;;-3.80;99.90;;;;;;5076219;28;20021;-79
2024/02/12 00:08:07;;;;;;;28.02;14.63;;;-3.80;99.90;;;;;;5074840;28;20035;-83
2024/02/12 00:10:39;;;;;;;28.05;13.82;;;-3.70;99.90;;;;;;5066541;28;20508;-81
2024/02/12 00:13:05;;;;;;;27.23;13.23;;;-3.80;99.90;;;;;;5073881;28;20381;-82
2024/02/12 00:15:31;;;;;;;27.55;14.93;;;-3.70;99.90;;;;;;5075106;28;20031;-80
2024/02/12 00:17:59;;;;;;;28.85;14.65;;;-3.70;99.90;;;;;;5074590;28;20024;-84
2024/02/12 00:20:29;;;;;;;27.00;13.10;;;-3.80;99.90;;;;;;5077582;28;20127;-86
2024/02/12 00:22:55;;;;;;;25.63;15.35;;;-3.70;99.90;;;;;;5082981;28;20025;-82
2024/02/12 00:25:21;;;;;;;27.33;14.53;;;-3.70;99.90;;;;;;5073371;28;20075;-87
2024/02/12 00:27:48;;;;;;;25.65;14.05;;;-3.70;99.90;;;;;;5069311;28;20032;-87
2024/02/12 00:30:15;;;;;;;24.88;14.27;;;-3.70;99.90;;;;;;5067625;28;20627;-85
2024/02/12 00:32:44;;;;;;;29.13;13.45;;;-3.70;99.90;;;;;;5073071;28;20378;-87
2024/02/12 00:35:11;;;;;;;27.08;14.10;;;-3.70;99.90;;;;;;5073452;28;20024;-85
2024/02/12 00:37:37;;;;;;;24.58;14.77;;;-3.70;99.90;;;;;;5076538;28;20052;-84
2024/02/12 00:40:09;;;;;;;26.45;13.65;;;-3.70;99.90;;;;;;5090522;28;20028;-85
2024/02/12 00:42:41;;;;;;;27.40;13.13;;;-3.70;99.90;;;;;;5091791;28;20036;-88
2024/02/12 00:45:11;;;;;;;27.92;14.18;;;-3.70;99.90;;;;;;5070574;28;20028;-86
2024/02/12 00:47:38;;;;;;;26.13;13.07;;;-3.70;99.90;;;;;;5067910;28;20060;-87
2024/02/12 00:50:07;;;;;;;22.70;13.38;;;-3.70;99.90;;;;;;5072368;28;20017;-86
2024/02/12 00:52:35;;;;;;;22.67;11.57;;;-3.70;99.90;;;;;;5070556;28;20371;-85
2024/02/12 00:55:02;;;;;;;27.00;12.93;;;-3.70;99.90;;;;;;5078587;28;20055;-86
2024/02/12 00:57:28;;;;;;;20.00;11.15;;;-3.80;99.90;;;;;;5078359;28;20033;-85
2024/02/12 00:59:54;;;;;;;29.10;14.80;;;-3.80;99.90;;;;;;5085052;28;20017;-85
2024/02/12 01:02:20;;;;;;;22.20;12.45;;;-3.80;99.90;;;;;;5073198;28;20035;-85
2024/02/12 01:04:46;;;;;;;25.83;12.70;;;-3.80;99.90;;;;;;5075936;28;20025;-87
2024/02/12 01:07:12;;;;;;;27.75;14.55;;;-3.80;99.90;;;;;;5076327;28;20385;-85
2024/02/12 01:09:39;;;;;;;28.52;13.40;;;-3.80;99.90;;;;;;5080563;28;20040;-86
2024/02/12 01:12:05;;;;;;;28.15;13.15;;;-3.80;99.90;;;;;;5080075;28;20031;-87
2024/02/12 01:14:30;;;;;;;30.33;13.30;;;-3.70;99.90;;;;;;5082328;28;20024;-88
2024/02/12 01:16:56;;;;;;;25.58;13.77;;;-3.80;99.90;;;;;;5078917;28;20028;-85
2024/02/12 01:19:22;;;;;;;28.33;15.10;;;-3.80;99.90;;;;;;5080074;28;20031;-86
2024/02/12 01:21:49;;;;;;;31.15;15.10;;;-3.80;99.90;;;;;;5081923;28;20073;-86
2024/02/12 01:24:15;;;;;;;27.50;14.30;;;-3.70;99.90;;;;;;5066103;28;20413;-87
2024/02/12 01:26:44;;;;;;;23.42;14.27;;;-3.70;99.90;;;;;;5080728;28;20433;-86
2024/02/12 01:29:11;;;;;;;26.15;14.65;;;-3.70;99.90;;;;;;5078411;28;20024;-86
2024/02/12 01:31:37;;;;;;;30.67;14.35;;;-3.60;99.90;;;;;;5080262;28;20021;-86
2024/02/12 01:34:06;;;;;;;29.25;13.82;;;-3.70;99.90;;;;;;5089918;28;20028;-86
2024/02/12 01:36:33;;;;;;;31.58;16.33;;;-3.70;99.90;;;;;;5094798;28;20494;-87
2024/02/12 01:38:59;;;;;;;34.97;14.18;;;-3.70;99.90;;;;;;5088836;28;20381;-87
2024/02/12 01:41:25;;;;;;;26.85;13.45;;;-3.70;99.90;;;;;;5086735;28;20025;-87
2024/02/12 01:43:51;;;;;;;29.73;14.15;;;-3.70;99.90;;;;;;5084447;28;20493;-88
2024/02/12 01:46:19;;;;;;;24.65;14.38;;;-3.70;99.90;;;;;;5069491;28;20029;-88
2024/02/12 01:48:45;;;;;;;25.10;14.10;;;-3.70;99.90;;;;;;5076429;28;20009;-87
2024/02/12 01:51:13;;;;;;;30.17;13.38;;;-3.60;99.90;;;;;;5075060;28;20031;-85
2024/02/12 01:53:42;;;;;;;25.95;16.33;;;-3.60;99.90;;;;;;5078980;28;20021;-86
2024/02/12 01:56:10;;;;;;;31.27;16.23;;;-3.60;99.90;;;;;;5077934;28;20021;-88
2024/02/12 01:58:40;;;;;;;29.45;14.57;;;-3.60;99.90;;;;;;5073850;28;20023;-86
2024/02/12 02:01:07;;;;;;;24.15;13.75;;;-3.60;99.90;;;;;;5074065;28;20056;-87
2024/02/12 02:03:33;;;;;;;33.22;15.52;;;-3.60;99.90;;;;;;5077133;28;20075;-85
2024/02/12 02:06:00;;;;;;;25.70;14.95;;;-3.60;99.90;;;;;;5092393;28;20021;-86
2024/02/12 02:08:36;;;;;;;31.00;16.20;;;-3.60;99.90;;;;;;5074982;28;20056;-87
2024/02/12 02:11:07;;;;;;;28.42;16.08;;;-3.50;99.90;;;;;;5074034;28;20028;-86
2024/02/12 02:13:34;;;;;;;28.95;17.08;;;-3.50;99.90;;;;;;5072771;28;20020;-86
2024/02/12 02:16:01;;;;;;;30.95;13.88;;;-3.50;99.90;;;;;;5072564;28;20115;-87
2024/02/12 02:18:29;;;;;;;30.60;14.65;;;-3.50;99.90;;;;;;5074347;28;20413;-85
2024/02/12 02:20:56;;;;;;;31.85;16.08;;;-3.50;99.90;;;;;;5072871;28;20478;-85
2024/02/12 02:23:23;;;;;;;33.17;16.42;;;-3.60;99.90;;;;;;5101730;28;20028;-85
2024/02/12 02:25:49;;;;;;;30.38;15.55;;;-3.50;99.90;;;;;;5087657;28;20039;-86
2024/02/12 02:28:17;;;;;;;27.92;12.98;;;-3.50;99.90;;;;;;5085859;28;20028;-88
2024/02/12 02:30:43;;;;;;;31.77;16.35;;;-3.50;99.90;;;;;;5081328;28;20381;-87
2024/02/12 02:33:09;;;;;;;31.33;17.48;;;-3.50;99.90;;;;;;5081904;28;20024;-86
2024/02/12 02:35:38;;;;;;;31.85;17.20;;;-3.50;99.90;;;;;;5082744;28;20024;-85
2024/02/12 02:38:03;;;;;;;33.05;16.33;;;-3.50;99.90;;;;;;5087044;28;20094;-87
2024/02/12 02:40:29;;;;;;;27.58;15.45;;;-3.50;99.90;;;;;;5087560;28;20017;-85
2024/02/12 02:42:56;;;;;;;33.60;16.48;;;-3.50;99.90;;;;;;5094076;28;20095;-86
2024/02/12 02:45:25;;;;;;;30.63;16.85;;;-3.50;99.90;;;;;;5081223;28;20032;-85
2024/02/12 02:47:53;;;;;;;37.72;18.02;;;-3.50;99.90;;;;;;5077177;28;20184;-86
2024/02/12 02:50:19;;;;;;;29.00;17.13;;;-3.50;99.90;;;;;;5082689;28;20532;-85
2024/02/12 02:52:45;;;;;;;28.83;15.55;;;-3.40;99.90;;;;;;5084912;28;20043;-85
2024/02/12 02:55:11;;;;;;;33.58;16.65;;;-3.40;99.90;;;;;;5082454;28;20088;-86
2024/02/12 02:57:38;;;;;;;35.72;18.20;;;-3.40;99.90;;;;;;5077627;28;20031;-85
2024/02/12 03:00:05;;;;;;;33.88;16.77;;;-3.40;99.90;;;;;;5078049;28;20028;-85
2024/02/12 03:02:31;;;;;;;33.53;16.02;;;-3.40;99.90;;;;;;5084865;28;20033;-85
2024/02/12 03:04:57;;;;;;;34.88;17.40;;;-3.40;99.90;;;;;;5088353;28;20028;-86
2024/02/12 03:07:24;;;;;;;31.83;17.45;;;-3.40;99.90;;;;;;5095199;28;20056;-87
2024/02/12 03:09:49;;;;;;;33.00;18.00;;;-3.40;99.90;;;;;;5081602;28;20331;-86
2024/02/12 03:12:16;;;;;;;38.42;17.00;;;-3.40;99.90;;;;;;5072983;28;20032;-85
2024/02/12 03:14:42;;;;;;;21.57;13.27;;;-3.40;99.90;;;;;;5067536;28;20048;-86
2024/02/12 03:17:08;;;;;;;39.00;18.15;;;-3.40;99.90;;;;;;5075928;28;20377;-86
2024/02/12 03:19:34;;;;;;;38.67;18.20;;;-3.40;99.90;;;;;;5071048;28;20450;-86
2024/02/12 03:21:59;;;;;;;30.10;16.58;;;-3.40;99.90;;;;;;5077824;28;20036;-87
2024/02/12 03:24:26;;;;;;;38.47;18.75;;;-3.40;99.90;;;;;;5079755;28;20450;-85
2024/02/12 03:26:52;;;;;;;39.35;18.25;;;-3.40;99.90;;;;;;5079688;28;20036;-86
2024/02/12 03:29:21;;;;;;;38.25;17.65;;;-3.40;99.90;;;;;;5074539;28;20025;-86
2024/02/12 03:31:46;;;;;;;36.78;16.75;;;-3.30;99.90;;;;;;5072726;28;20431;-85
2024/02/12 03:34:14;;;;;;;32.90;16.30;;;-3.40;99.90;;;;;;5077506;28;20028;-84
2024/02/12 03:36:43;;;;;;;32.28;15.35;;;-3.40;99.90;;;;;;5070174;28;20028;-85
2024/02/12 03:39:11;;;;;;;37.33;18.33;;;-3.40;99.90;;;;;;5077703;28;20538;-85
2024/02/12 03:41:37;;;;;;;37.25;16.48;;;-3.40;99.90;;;;;;5081818;28;20374;-85
2024/02/12 03:44:03;;;;;;;33.72;15.57;;;-3.40;99.90;;;;;;5083048;28;20028;-85
2024/02/12 03:46:31;;;;;;;27.92;16.00;;;-3.30;99.90;;;;;;5077956;28;20447;-82
2024/02/12 03:59:57;;;;;;;33.63;15.73;;;-3.30;99.90;;;;;;5076364;28;20043;-84
2024/02/12 04:02:23;;;;;;;34.58;17.20;;;-3.30;99.90;;;;;;5075508;28;20033;-83
2024/02/12 04:04:50;;;;;;;33.15;17.85;;;-3.20;99.90;;;;;;5077200;28;20442;-84
2024/02/12 04:07:17;;;;;;;31.05;18.08;;;-3.20;99.90;;;;;;5088373;28;20394;-85
2024/02/12 04:09:43;;;;;;;25.92;15.30;;;-3.20;99.90;;;;;;5074545;28;20040;-85
2024/02/12 04:12:13;;;;;;;25.52;14.98;;;-3.20;99.90;;;;;;5072213;28;20086;-83
2024/02/12 04:14:42;;;;;;;29.30;16.45;;;-3.20;99.90;;;;;;5076560;28;20058;-85
2024/02/12 04:17:14;;;;;;;30.98;15.27;;;-3.20;99.90;;;;;;5075858;28;20457;-84
2024/02/12 04:19:40;;;;;;;31.48;15.38;;;-3.20;99.90;;;;;;5076597;28;20017;-85
2024/02/12 04:22:09;;;;;;;33.45;16.95;;;-3.10;99.90;;;;;;5076964;28;20066;-85
2024/02/12 04:24:41;;;;;;;29.67;17.30;;;-3.10;99.90;;;;;;5085000;28;20024;-85
2024/02/12 04:27:08;;;;;;;34.85;17.92;;;-3.10;99.90;;;;;;5074838;28;20570;-83
2024/02/12 04:29:37;;;;;;;35.08;17.00;;;-3.10;99.90;;;;;;5070382;28;20028;-85
2024/02/12 04:32:11;;;;;;;35.60;17.05;;;-3.00;99.90;;;;;;5084912;28;20078;-84
2024/02/12 04:34:38;;;;;;;33.08;16.55;;;-3.00;99.90;;;;;;5075456;28;20119;-86
2024/02/12 04:37:06;;;;;;;35.03;17.52;;;-3.00;99.90;;;;;;5082562;28;20039;-85
2024/02/12 04:39:32;;;;;;;27.48;16.70;;;-3.00;99.90;;;;;;5092644;28;20028;-85
2024/02/12 04:41:59;;;;;;;30.60;16.33;;;-3.00;99.90;;;;;;5085094;28;20032;-85
2024/02/12 04:44:26;;;;;;;36.73;15.50;;;-3.00;99.90;;;;;;5073850;28;20035;-86
2024/02/12 04:46:52;;;;;;;31.33;16.67;;;-3.10;99.90;;;;;;5075849;28;20028;-85
2024/02/12 04:49:21;;;;;;;31.65;16.35;;;-3.10;99.90;;;;;;5081122;28;20273;-86
2024/02/12 04:51:47;;;;;;;35.50;17.60;;;-3.10;99.90;;;;;;5094961;28;20025;-86
2024/02/12 04:54:14;;;;;;;31.25;15.13;;;-3.10;99.90;;;;;;5084303;28;20070;-85
2024/02/12 04:56:43;;;;;;;29.60;15.20;;;-3.10;99.90;;;;;;5082169;28;20144;-88
2024/02/12 04:59:12;;;;;;;37.10;21.67;;;-3.10;99.90;;;;;;5076383;28;20070;-86
2024/02/12 05:01:41;;;;;;;30.75;14.73;;;-3.10;99.90;;;;;;5076373;28;20031;-88
2024/02/12 05:04:07;;;;;;;27.65;14.68;;;-3.10;99.90;;;;;;5076506;28;20094;-85
2024/02/12 05:06:36;;;;;;;29.73;16.83;;;-3.10;99.90;;;;;;5082517;28;20017;-86
2024/02/12 05:09:09;;;;;;;30.88;16.52;;;-3.10;99.90;;;;;;5083309;28;20036;-85
2024/02/12 05:11:35;;;;;;;37.38;18.48;;;-3.10;99.90;;;;;;5072651;28;20036;-83
2024/02/12 05:14:01;;;;;;;36.30;18.00;;;-3.10;99.90;;;;;;5078048;28;20021;-82
2024/02/12 05:16:32;;;;;;;38.25;17.20;;;-3.20;99.90;;;;;;5075282;28;20478;-85
2024/02/12 05:24:37;;;;;;;34.33;15.68;;;-3.00;99.90;;;;;;5074767;28;20063;-85
2024/02/12 05:27:03;;;;;;;31.38;18.13;;;-3.10;99.90;;;;;;5074741;28;20025;-84
2024/02/12 05:29:29;;;;;;;35.03;18.80;;;-3.00;99.90;;;;;;5074484;28;20035;-84
2024/02/12 05:31:55;;;;;;;32.15;16.88;;;-3.00;99.90;;;;;;5078826;28;20065;-83
2024/02/12 05:34:23;;;;;;;28.85;18.27;;;-3.00;99.90;;;;;;5074286;28;20055;-84
2024/02/12 05:36:53;;;;;;;34.60;18.58;;;-3.00;99.90;;;;;;5090019;28;20092;-87
2024/02/12 05:39:21;;;;;;;32.65;19.20;;;-3.00;99.90;;;;;;5072095;28;20062;-84
2024/02/12 05:41:47;;;;;;;;;;;-2.90;99.90;;;;;;5072357;28;20066;-84
2024/02/12 05:44:13;;;;;;;29.67;15.63;;;-2.90;99.90;;;;;;5075635;28;19905;-84
2024/02/12 05:46:39;;;;;;;31.53;17.10;;;-3.00;99.90;;;;;;5074289;28;20078;-85
2024/02/12 05:49:06;;;;;;;33.55;18.05;;;-2.90;99.90;;;;;;5082059;28;20056;-84
2024/02/12 05:51:33;;;;;;;40.17;18.67;;;-3.00;99.90;;;;;;5082760;28;20032;-86
2024/02/12 05:54:00;;;;;;;30.60;17.60;;;-3.00;99.90;;;;;;5072476;28;20024;-84
2024/02/12 05:56:26;;;;;;;36.65;17.92;;;-2.90;99.90;;;;;;5068310;28;20021;-84
2024/02/12 05:58:52;;;;;;;34.60;18.50;;;-2.90;99.90;;;;;;5073482;28;20074;-85
2024/02/12 06:01:18;;;;;;;31.98;17.98;;;-2.80;99.90;;;;;;5074182;28;20023;-84
2024/02/12 06:03:45;;;;;;;33.28;19.92;;;-2.80;99.90;;;;;;5062968;28;20033;-85
2024/02/12 06:06:12;;;;;;;31.02;16.58;;;-2.80;99.90;;;;;;5074538;28;20012;-84
2024/02/12 06:08:38;;;;;;;38.30;21.58;;;-2.80;99.90;;;;;;5077414;28;20040;-83
2024/02/12 06:11:05;;;;;;;36.95;19.60;;;-2.70;99.90;;;;;;5080109;28;20373;-85
2024/02/12 06:13:31;;;;;;;29.45;18.02;;;-2.70;99.90;;;;;;5079116;28;20024;-85
2024/02/12 06:15:57;;;;;;;33.30;19.70;;;-2.60;99.90;;;;;;5083094;28;20093;-85
2024/02/12 06:18:23;;;;;;;34.95;17.77;;;-2.70;99.90;;;;;;5078814;28;20484;-84
2024/02/12 06:20:50;;;;;;;29.60;16.17;;;-2.60;99.90;;;;;;5064213;28;20021;-83
2024/02/12 06:23:16;;;;;;;34.08;18.88;;;-2.60;99.90;;;;;;5061803;28;20085;-84
2024/02/12 06:25:42;;;;;;;31.52;16.70;;;-2.60;99.90;;;;;;5075475;28;20056;-84
2024/02/12 06:28:11;;;;;;;30.75;16.65;;;-2.60;99.90;;;;;;5083748;28;20028;-85
2024/02/12 06:30:37;;;;;;;32.40;18.33;;;-2.50;99.90;;;;;;5076492;28;20032;-85
2024/02/12 06:33:03;;;;;;;28.40;17.10;;;-2.50;99.90;;;;;;5074112;28;20024;-85
2024/02/12 06:35:30;;;;;;;34.63;18.52;;;-2.50;99.90;;;;;;5074680;28;20047;-86
2024/02/12 06:37:56;;;;;;;28.53;16.77;;;-2.50;99.90;;;;;;5069899;28;20027;-86
2024/02/12 06:40:22;;;;;;;34.80;18.38;;;-2.50;99.90;;;;;;5067533;28;20070;-85
2024/02/12 06:42:49;;;;;;;33.80;18.02;;;-2.50;99.90;;;;;;5063871;28;20041;-87
2024/02/12 06:45:16;;;;;;;27.50;18.35;;;-2.40;99.90;;;;;;5067605;28;20036;-87
2024/02/12 06:47:43;;;;;;;25.35;15.70;;;-2.40;99.90;;;;;;5073954;28;20502;-86
2024/02/12 06:50:09;;;;;;;30.33;16.67;;;-2.30;99.90;;;;;;5066540;28;20043;-86
2024/02/12 06:52:35;;;;;;;36.10;18.73;;;-2.30;99.90;;;;;;5073224;28;20020;-87
2024/02/12 06:55:01;;;;;;;31.38;18.33;;;-2.30;99.90;;;;;;5067763;28;20035;-87
2024/02/12 06:57:27;;;;;;;30.40;18.15;;;-2.30;99.90;;;;;;5075100;28;20082;-87
2024/02/12 06:59:53;;;;;;;33.60;18.92;;;-2.30;99.90;;;;;;5072864;28;20070;-84
2024/02/12 07:02:19;;;;;;;28.40;16.05;;;-2.30;99.90;;;;;;5075135;28;20032;-88
2024/02/12 07:04:47;;;;;;;30.48;15.15;;;-2.20;99.90;;;;;;5075364;28;20108;-87
2024/02/12 07:07:14;;;;;;;35.75;17.95;;;-2.20;99.90;;;;;;5067903;28;20025;-87
2024/02/12 07:09:40;;;;;;;25.63;15.73;;;-2.10;99.90;;;;;;5073889;28;20075;-87
2024/02/12 07:12:07;;;;;;;32.10;19.65;;;-2.10;99.90;;;;;;5077583;28;20099;-86
2024/02/12 07:14:33;;;;;;;31.55;17.30;;;-2.10;99.90;;;;;;5066419;28;20018;-86
2024/02/12 07:16:59;;;;;;;31.83;17.70;;;-2.00;99.90;;;;;;5076676;28;20078;-86
2024/02/12 07:19:26;;;;;;;28.55;17.00;;;-2.00;99.90;;;;;;5078402;28;20371;-85
2024/02/12 07:21:52;;;;;;;35.05;18.02;;;-2.00;99.90;;;;;;5083437;28;20021;-82
2024/02/12 07:24:18;;;;;;;33.55;16.15;;;-2.00;99.90;;;;;;5075597;28;20033;-82
2024/02/12 07:26:45;;;;;;;30.10;17.60;;;-1.90;99.90;;;;;;5073280;28;20516;-85
2024/02/12 07:29:11;;;;;;;25.13;15.20;;;-1.90;99.90;;;;;;5075244;28;20047;-85
2024/02/12 07:31:37;;;;;;;26.63;14.18;;;-1.90;99.90;;;;;;5070471;28;20064;-83
2024/02/12 07:34:04;;;;;;;24.08;13.82;;;-1.90;99.90;;;;;;5079881;28;20020;-82
2024/02/12 07:36:30;;;;;;;27.85;13.30;;;-2.00;99.90;;;;;;5071771;28;20370;-84
2024/02/12 07:38:56;;;;;;;24.50;12.63;;;-2.00;99.90;;;;;;5070380;28;20037;-84
2024/02/12 07:41:22;;;;;;;26.90;14.27;;;-2.10;99.90;;;;;;5071600;28;20024;-82
2024/02/12 07:43:48;;;;;;;28.73;14.50;;;-2.10;99.90;;;;;;5084164;28;20051;-86
2024/02/12 07:46:14;;;;;;;33.35;14.95;;;-2.10;99.90;;;;;;5073738;28;20078;-82
2024/02/12 07:48:43;;;;;;;22.65;13.93;;;-2.10;99.90;;;;;;5072335;28;20090;-85
2024/02/12 07:51:15;;;;;;;28.10;16.60;;;-2.00;99.90;;;;;;5071821;28;20024;-86
2024/02/12 07:53:40;;;;;;;21.63;12.48;;;-2.10;99.90;;;;;;5060239;28;20021;-82
2024/02/12 07:56:07;;;;;;;23.38;12.68;;;-2.10;99.90;;;;;;5058073;28;20031;-86
2024/02/12 07:58:33;;;;;;;22.52;13.60;;;-2.00;99.90;;;;;;5072042;28;20052;-82
2024/02/12 08:00:59;;;;;;;24.58;14.15;;;-2.00;99.90;;;;;;5073422;28;20021;-85
2024/02/12 08:03:25;;;;;;;24.70;15.13;;;-2.00;99.90;;;;;;5071974;28;20086;-83
2024/02/12 08:05:51;;;;;;;19.42;12.15;;;-2.00;99.90;;;;;;5072634;28;20016;-83
2024/02/12 08:08:17;;;;;;;30.15;13.75;;;-1.90;99.90;;;;;;5070548;28;20129;-87
2024/02/12 08:10:44;;;;;;;26.52;15.48;;;-1.90;99.90;;;;;;5076143;28;20056;-87
2024/02/12 08:13:10;;;;;;;30.10;15.90;;;-1.90;99.90;;;;;;5075462;28;20028;-83
2024/02/12 08:15:36;;;;;;;27.85;15.55;;;-1.80;99.90;;;;;;5075875;28;20385;-85
2024/02/12 08:18:06;;;;;;;27.83;13.48;;;-1.80;99.90;;;;;;5073831;28;20012;-86
2024/02/12 08:20:32;;;;;;;23.92;16.00;;;-1.80;99.90;;;;;;5068021;28;20052;-85
2024/02/12 08:22:58;;;;;;;20.30;12.70;;;-1.80;99.90;;;;;;5071511;28;20024;-85
2024/02/12 08:25:27;;;;;;;22.90;14.40;;;-1.70;99.90;;;;;;5086082;28;20024;-86
2024/02/12 08:27:54;;;;;;;24.30;14.32;;;-1.70;99.90;;;;;;5086958;28;20025;-85
2024/02/12 08:30:21;;;;;;;27.65;14.48;;;-1.70;99.90;;;;;;5070894;28;20087;-85
2024/02/12 08:32:47;;;;;;;23.75;13.48;;;-1.60;99.90;;;;;;5068004;28;20039;-86
2024/02/12 08:35:16;;;;;;;24.13;12.75;;;-1.60;99.90;;;;;;5080757;28;20154;-87
2024/02/12 08:37:42;;;;;;;33.20;15.85;;;-1.60;99.90;;;;;;5075530;28;20025;-84
2024/02/12 08:40:10;;;;;;;30.90;17.20;;;-1.60;99.90;;;;;;5080385;28;20016;-85
2024/02/12 08:42:41;;;;;;;19.25;11.35;;;-1.50;99.90;;;;;;5083849;28;20032;-88
2024/02/12 08:45:10;;;;;;;23.15;13.90;;;-1.50;99.90;;;;;;5074854;28;20052;-85
2024/02/12 08:47:37;;;;;;;23.75;12.93;;;-1.50;99.90;;;;;;5069754;28;20077;-87
2024/02/12 08:50:03;;;;;;;25.95;13.88;;;-1.40;99.90;;;;;;5071277;28;20100;-82
2024/02/12 08:52:32;;;;;;;24.73;14.63;;;-1.40;99.90;;;;;;5074715;28;20123;-84
2024/02/12 08:54:59;;;;;;;23.80;13.85;;;-1.40;99.90;;;;;;5075602;28;20020;-82
2024/02/12 08:57:28;;;;;;;26.73;12.52;;;-1.30;99.90;;;;;;5077248;28;20043;-84
2024/02/12 08:59:54;;;;;;;27.80;14.00;;;-1.30;99.90;;;;;;5074196;28;20067;-82
2024/02/12 09:02:21;;;;;;;21.05;13.02;;;-1.30;99.90;;;;;;5075935;28;20060;-84
2024/02/12 09:04:48;;;;;;;21.83;13.20;;;-1.30;99.90;;;;;;5077283;28;20031;-85
2024/02/12 09:07:14;;;;;;;22.70;13.55;;;-1.30;99.90;;;;;;5099932;28;20046;-87
2024/02/12 09:09:40;;;;;;;27.27;14.98;;;-1.30;99.90;;;;;;5096400;28;20044;-87
2024/02/12 09:12:06;;;;;;;24.17;13.48;;;-1.30;99.90;;;;;;5090556;28;20086;-83
2024/02/12 09:14:35;;;;;;;22.77;14.32;;;-1.20;99.90;;;;;;5090605;28;20025;-88
2024/02/12 09:17:01;;;;;;;17.73;12.73;;;-1.20;99.90;;;;;;5111270;28;20032;-88
2024/02/12 09:19:26;;;;;;;21.05;12.65;;;-1.20;99.90;;;;;;5091343;28;20409;-85
2024/02/12 09:21:52;;;;;;;19.98;12.73;;;-1.20;99.90;;;;;;5077562;28;20024;-89
2024/02/12 09:24:18;;;;;;;17.55;10.73;;;-1.10;99.90;;;;;;5082087;28;20033;-88
2024/02/12 09:26:44;;;;;;;19.10;11.43;;;-1.00;99.90;;;;;;5087875;28;20412;-89
2024/02/12 09:29:10;;;;;;;22.85;14.07;;;-1.00;99.90;;;;;;5068448;28;20031;-86
2024/02/12 09:31:39;;;;;;;21.75;13.52;;;-1.00;99.90;;;;;;5080338;28;20062;-90
2024/02/12 09:34:06;;;;;;;22.77;11.50;;;-0.90;99.90;;;;;;5082463;28;20021;-89
2024/02/12 09:36:35;;;;;;;17.60;11.75;;;-0.90;99.90;;;;;;5080107;28;20020;-89
2024/02/12 09:39:05;;;;;;;17.00;11.82;;;-0.90;99.90;;;;;;5062106;28;20036;-91
2024/02/12 09:41:34;;;;;;;24.08;11.95;;;-0.90;99.90;;;;;;5080434;28;20077;-87
2024/02/12 09:44:04;;;;;;;22.92;14.15;;;-0.80;99.90;;;;;;5079224;28;20024;-90
2024/02/12 09:46:35;;;;;;;32.75;16.08;;;-0.80;99.90;;;;;;5077497;28;20029;-86
2024/02/12 09:49:01;;;;;;;25.05;14.27;;;-0.80;99.90;;;;;;5074347;28;20059;-85
2024/02/12 09:51:27;;;;;;;25.25;13.50;;;-0.80;99.90;;;;;;5075059;28;20036;-86
2024/02/12 09:53:56;;;;;;;22.63;11.95;;;-0.70;99.90;;;;;;5075429;28;20112;-85
2024/02/12 09:56:24;;;;;;;19.55;12.57;;;-0.70;99.90;;;;;;5075263;28;20031;-85
2024/02/12 09:58:50;;;;;;;17.13;11.27;;;-0.70;99.90;;;;;;5068427;28;20150;-88
2024/02/12 10:01:16;;;;;;;20.17;11.68;;;-0.60;99.90;;;;;;5069149;28;20031;-90
2024/02/12 10:03:44;;;;;;;16.42;10.02;;;-0.60;99.90;;;;;;5067136;28;20029;-89
2024/02/12 10:06:13;;;;;;;19.98;10.10;;;-0.50;99.90;;;;;;5069368;28;20032;-87
2024/02/12 10:08:40;;;;;;;21.15;12.95;;;-0.50;99.90;;;;;;5079448;28;20056;-87
2024/02/12 10:11:06;;;;;;;19.60;11.65;;;-0.50;99.90;;;;;;5077906;28;20032;-89
2024/02/12 10:13:33;;;;;;;20.40;11.93;;;-0.50;99.90;;;;;;5076428;28;20028;-88
2024/02/12 10:15:59;;;;;;;13.55;9.68;;;-0.50;99.90;;;;;;5076707;28;20021;-89
2024/02/12 10:18:25;;;;;;;17.65;12.02;;;-0.40;99.90;;;;;;5076016;28;20021;-88
2024/02/12 10:20:52;;;;;;;18.60;11.35;;;-0.40;99.90;;;;;;5079778;28;20017;-89
2024/02/12 10:23:21;;;;;;;18.48;13.10;;;-0.40;99.90;;;;;;5044979;28;20053;-89
2024/02/12 10:25:51;;;;;;;21.77;12.32;;;-0.40;99.90;;;;;;5046609;28;20108;-89
2024/02/12 10:28:18;;;;;;;17.17;10.60;;;-0.30;99.90;;;;;;5051625;28;20056;-89
2024/02/12 10:30:46;;;;;;;20.40;12.02;;;-0.30;99.90;;;;;;5070904;28;20020;-86
2024/02/12 10:33:13;;;;;;;19.50;10.43;;;-0.30;99.90;;;;;;5061668;28;20044;-86
2024/02/12 10:35:43;;;;;;;16.73;11.00;;;-0.20;99.90;;;;;;5038116;28;20127;-88
2024/02/12 10:38:14;;;;;;;15.52;10.43;;;-0.20;99.90;;;;;;5057591;28;20029;-91
2024/02/12 10:41:03;;;;;;;16.33;11.00;;;-0.20;99.90;;;;;;5039774;28;20141;-90
2024/02/12 10:43:32;;;;;;;17.63;10.55;;;-0.20;99.90;;;;;;5049409;28;20045;-91
2024/02/12 10:46:02;;;;;;;12.68;9.18;;;-0.20;99.90;;;;;;5035787;28;20108;-89
2024/02/12 10:48:32;;;;;;;16.10;10.35;;;-0.30;99.90;;;;;;5042378;28;20045;-90
2024/02/12 10:51:00;;;;;;;13.93;9.20;;;-0.20;99.90;;;;;;5030691;28;20033;-90
2024/02/12 10:53:30;;;;;;;10.90;7.50;;;-0.20;99.90;;;;;;5053416;28;20122;-88
2024/02/12 10:55:56;;;;;;;14.48;9.23;;;-0.20;99.90;;;;;;5046101;28;20029;-88
2024/02/12 10:58:22;;;;;;;12.35;8.13;;;-0.20;99.90;;;;;;5048404;28;20022;-90
2024/02/12 11:00:56;;;;;;;12.65;8.25;;;-0.30;99.90;;;;;;5052006;28;20498;-93
2024/02/12 11:03:32;;;;;;;13.88;8.43;;;-0.30;99.90;;;;;;5043830;28;20064;-90
2024/02/12 11:06:00;;;;;;;11.85;7.63;;;-0.30;99.90;;;;;;5054759;28;20394;-90
2024/02/12 11:08:28;;;;;;;;;;;-0.30;99.90;;;;;;5066390;28;20049;-90
2024/02/12 11:11:00;;;;;;;10.50;7.03;;;-0.30;99.90;;;;;;5045071;28;19905;-87
2024/02/12 11:13:36;;;;;;;12.13;9.13;;;-0.30;99.90;;;;;;5066210;28;20085;-86
2024/02/12 11:16:03;;;;;;;14.02;7.35;;;-0.30;99.90;;;;;;5073516;28;20091;-88
2024/02/12 11:18:35;;;;;;;14.07;8.27;;;-0.40;99.90;;;;;;5064867;28;20077;-88
2024/02/12 11:21:01;;;;;;;18.45;8.52;;;-0.50;99.90;;;;;;5051260;28;20044;-89
2024/02/12 11:23:28;;;;;;;19.58;9.75;;;-0.50;99.90;;;;;;5062674;28;20049;-86
2024/02/12 11:25:56;;;;;;;20.42;10.98;;;-0.50;99.90;;;;;;5056578;28;20067;-89
2024/02/12 11:28:25;;;;;;;16.42;10.15;;;-0.50;99.90;;;;;;5058800;28;20051;-90
2024/02/12 11:30:53;;;;;;;15.55;10.13;;;-0.50;99.90;;;;;;5048983;28;20699;-86
2024/02/12 11:33:19;;;;;;;18.05;10.48;;;-0.50;99.90;;;;;;5077175;28;20020;-88
2024/02/12 11:35:45;;;;;;;15.32;8.73;;;-0.50;99.90;;;;;;5076537;28;20039;-89
2024/02/12 11:38:17;;;;;;;16.40;9.70;;;-0.50;99.90;;;;;;5085177;28;20029;-88
2024/02/12 11:40:44;;;;;;;14.57;9.98;;;-0.40;99.90;;;;;;5064585;28;20029;-88
2024/02/12 11:43:10;;;;;;;;;;;-0.40;99.90;;;;;;5072869;28;20052;-87
2024/02/12 11:45:36;;;;;;;16.00;10.18;;;-0.40;99.90;;;;;;5078335;28;19904;-86
2024/02/12 11:48:10;;;;;;;16.45;8.80;;;-0.50;99.90;;;;;;5074157;28;20055;-87
2024/02/12 11:50:37;;;;;;;15.90;9.70;;;-0.40;99.90;;;;;;5072311;28;20092;-84
2024/02/12 11:53:07;;;;;;;21.92;13.88;;;-0.40;99.90;;;;;;5083494;28;20025;-84
2024/02/12 11:55:33;;;;;;;15.27;10.82;;;-0.40;99.90;;;;;;5088987;28;20024;-87
2024/02/12 11:57:59;;;;;;;16.38;9.38;;;-0.30;99.90;;;;;;5080297;28;20017;-88
2024/02/12 12:00:28;;;;;;;18.27;11.13;;;-0.30;99.90;;;;;;5083992;28;20108;-86
2024/02/12 12:02:55;;;;;;;13.02;9.77;;;-0.30;99.90;;;;;;5075886;28;20039;-89
2024/02/12 12:05:28;;;;;;;21.80;12.85;;;-0.20;99.90;;;;;;5077104;28;20024;-87
2024/02/12 12:07:56;;;;;;;23.23;10.25;;;-0.30;99.90;;;;;;5062599;28;20528;-86
2024/02/12 12:10:24;;;;;;;20.90;12.30;;;-0.20;99.90;;;;;;5073466;28;20052;-85
2024/02/12 12:12:50;;;;;;;;;;;-0.20;99.90;;;;;;5078297;28;20024;-86
2024/02/12 12:15:16;;;;;;;11.73;7.78;;;-0.20;99.90;;;;;;5074789;28;19916;-85
2024/02/12 12:17:46;;;;;;;19.15;10.18;;;-0.20;99.90;;;;;;5074630;28;20094;-85
2024/02/12 12:20:14;;;;;;;18.05;10.98;;;-0.20;99.90;;;;;;5091392;28;20033;-88
2024/02/12 12:22:40;;;;;;;14.30;10.10;;;-0.20;99.90;;;;;;5078848;28;20064;-86
2024/02/12 12:25:09;;;;;;;17.58;10.40;;;-0.20;99.90;;;;;;5076145;28;20045;-87
2024/02/12 12:27:39;;;;;;;15.93;10.70;;;-0.20;99.90;;;;;;5071420;28;20436;-88
2024/02/12 12:30:16;;;;;;;16.27;10.02;;;-0.20;99.90;;;;;;5076007;28;20023;-86
2024/02/12 12:32:43;;;;;;;19.13;12.05;;;-0.20;99.90;;;;;;5077399;28;20138;-83
2024/02/12 12:35:10;;;;;;;17.35;10.23;;;-0.20;99.90;;;;;;5067065;28;20500;-85
2024/02/12 12:37:39;;;;;;;19.65;12.05;;;-0.20;99.90;;;;;;5077683;28;20032;-86
2024/02/12 12:40:11;;;;;;;24.02;15.82;;;-0.30;99.90;;;;;;5084412;28;20021;-89
2024/02/12 12:43:01;;;;;;;21.67;11.80;;;-0.30;99.90;;;;;;5080082;28;20044;-89
2024/02/12 12:45:27;;;;;;;22.50;12.80;;;-0.20;99.90;;;;;;5082197;28;20619;-87